sensor_id;sensor_type;location;lat;lon;timestamp;P1;durP1;ratioP1;P2;durP2;ratioP2
8683;SDS011;4379;59.744;18.206;2023-11-21T00:00:23;2.40;;;2.20;;
8683;SDS011;4379;59.744;18.206;2023-11-21T00:02:51;2.43;;;2.33;;
8683;SDS011;4379;59.744;18.206;2023-11-21T00:05:41;2.33;;;2.23;;
8683;SDS011;4379;59.744;18.206;2023-11-21T00:08:14;2.80;;;2.60;;
8683;SDS011;4379;59.744;18.206;2023-11-21T00:10:43;2.03;;;1.93;;
8683;SDS011;4379;59.744;18.206;2023-11-21T00:13:20;2.60;;;2.43;;
8683;SDS011;4379;59.744;18.206;2023-11-21T00:15:48;2.07;;;1.93;;
8683;SDS011;4379;59.744;18.206;2023-11-21T00:18:19;2.20;;;2.10;;
8683;SDS011;4379;59.744;18.206;2023-11-21T00:20:48;2.27;;;2.17;;
8683;SDS011;4379;59.744;18.206;2023-11-21T00:23:19;2.03;;;1.93;;
8683;SDS011;4379;59.744;18.206;2023-11-21T00:25:54;2.13;;;2.03;;
8683;SDS011;4379;59.744;18.206;2023-11-21T00:28:26;2.30;;;2.20;;
8683;SDS011;4379;59.744;18.206;2023-11-21T00:30:56;2.03;;;1.93;;
8683;SDS011;4379;59.744;18.206;2023-11-21T00:33:24;2.30;;;2.20;;
8683;SDS011;4379;59.744;18.206;2023-11-21T00:35:52;2.03;;;1.93;;
8683;SDS011;4379;59.744;18.206;2023-11-21T00:38:25;10.53;;;2.83;;
8683;SDS011;4379;59.744;18.206;2023-11-21T00:40:59;2.20;;;2.10;;
8683;SDS011;4379;59.744;18.206;2023-11-21T00:43:37;2.33;;;2.23;;
8683;SDS011;4379;59.744;18.206;2023-11-21T00:46:10;2.77;;;2.30;;
8683;SDS011;4379;59.744;18.206;2023-11-21T00:48:42;3.30;;;2.80;;
8683;SDS011;4379;59.744;18.206;2023-11-21T00:51:24;4.80;;;3.03;;
8683;SDS011;4379;59.744;18.206;2023-11-21T00:53:55;7.23;;;3.07;;
8683;SDS011;4379;59.744;18.206;2023-11-21T00:56:28;2.77;;;2.67;;
8683;SDS011;4379;59.744;18.206;2023-11-21T00:59:30;13.47;;;3.67;;
8683;SDS011;4379;59.744;18.206;2023-11-21T01:02:14;4.63;;;2.80;;
8683;SDS011;4379;59.744;18.206;2023-11-21T01:04:43;8.43;;;3.17;;
8683;SDS011;4379;59.744;18.206;2023-11-21T01:07:36;13.93;;;4.20;;
8683;SDS011;4379;59.744;18.206;2023-11-21T01:10:04;3.93;;;3.50;;
8683;SDS011;4379;59.744;18.206;2023-11-21T01:12:37;3.40;;;3.10;;
8683;SDS011;4379;59.744;18.206;2023-11-21T01:15:07;5.67;;;3.30;;
8683;SDS011;4379;59.744;18.206;2023-11-21T01:17:34;3.33;;;3.23;;
8683;SDS011;4379;59.744;18.206;2023-11-21T01:20:02;3.37;;;3.17;;
8683;SDS011;4379;59.744;18.206;2023-11-21T01:22:33;7.17;;;3.60;;
8683;SDS011;4379;59.744;18.206;2023-11-21T01:25:00;3.50;;;3.30;;
8683;SDS011;4379;59.744;18.206;2023-11-21T01:27:27;7.77;;;3.77;;
8683;SDS011;4379;59.744;18.206;2023-11-21T01:29:54;3.40;;;3.20;;
8683;SDS011;4379;59.744;18.206;2023-11-21T01:32:21;3.43;;;3.33;;
8683;SDS011;4379;59.744;18.206;2023-11-21T01:34:51;3.63;;;3.43;;
8683;SDS011;4379;59.744;18.206;2023-11-21T01:37:18;3.40;;;3.30;;
8683;SDS011;4379;59.744;18.206;2023-11-21T01:39:49;3.67;;;3.47;;
8683;SDS011;4379;59.744;18.206;2023-11-21T01:42:18;3.30;;;3.20;;
8683;SDS011;4379;59.744;18.206;2023-11-21T01:44:45;3.73;;;3.53;;
8683;SDS011;4379;59.744;18.206;2023-11-21T01:47:14;3.43;;;3.13;;
8683;SDS011;4379;59.744;18.206;2023-11-21T01:49:45;2.87;;;2.77;;
8683;SDS011;4379;59.744;18.206;2023-11-21T01:52:13;3.23;;;3.03;;
8683;SDS011;4379;59.744;18.206;2023-11-21T01:54:43;3.33;;;3.03;;
8683;SDS011;4379;59.744;18.206;2023-11-21T01:57:10;2.87;;;2.77;;
8683;SDS011;4379;59.744;18.206;2023-11-21T01:59:37;2.90;;;2.80;;
8683;SDS011;4379;59.744;18.206;2023-11-21T02:02:08;3.27;;;3.07;;
8683;SDS011;4379;59.744;18.206;2023-11-21T02:04:36;3.00;;;2.90;;
8683;SDS011;4379;59.744;18.206;2023-11-21T02:07:04;2.47;;;2.37;;
8683;SDS011;4379;59.744;18.206;2023-11-21T02:09:34;2.97;;;2.77;;
8683;SDS011;4379;59.744;18.206;2023-11-21T02:12:04;2.60;;;2.50;;
8683;SDS011;4379;59.744;18.206;2023-11-21T02:14:32;2.63;;;2.50;;
8683;SDS011;4379;59.744;18.206;2023-11-21T02:16:59;2.40;;;2.30;;
8683;SDS011;4379;59.744;18.206;2023-11-21T02:19:27;2.37;;;2.27;;
8683;SDS011;4379;59.744;18.206;2023-11-21T02:21:56;2.20;;;2.10;;
8683;SDS011;4379;59.744;18.206;2023-11-21T02:24:27;2.27;;;2.07;;
8683;SDS011;4379;59.744;18.206;2023-11-21T02:26:54;2.03;;;1.93;;
8683;SDS011;4379;59.744;18.206;2023-11-21T02:29:21;1.90;;;1.90;;
8683;SDS011;4379;59.744;18.206;2023-11-21T02:31:54;1.73;;;1.73;;
8683;SDS011;4379;59.744;18.206;2023-11-21T02:34:22;1.57;;;1.57;;
8683;SDS011;4379;59.744;18.206;2023-11-21T02:37:01;1.87;;;1.77;;
8683;SDS011;4379;59.744;18.206;2023-11-21T02:39:29;2.00;;;1.90;;
8683;SDS011;4379;59.744;18.206;2023-11-21T02:42:03;1.60;;;1.60;;
8683;SDS011;4379;59.744;18.206;2023-11-21T02:44:36;1.80;;;1.70;;
8683;SDS011;4379;59.744;18.206;2023-11-21T02:47:03;1.47;;;1.47;;
8683;SDS011;4379;59.744;18.206;2023-11-21T02:49:34;1.60;;;1.50;;
8683;SDS011;4379;59.744;18.206;2023-11-21T02:52:03;1.57;;;1.57;;
8683;SDS011;4379;59.744;18.206;2023-11-21T02:54:34;1.80;;;1.70;;
8683;SDS011;4379;59.744;18.206;2023-11-21T02:57:03;1.80;;;1.70;;
8683;SDS011;4379;59.744;18.206;2023-11-21T02:59:33;1.93;;;1.83;;
8683;SDS011;4379;59.744;18.206;2023-11-21T03:02:04;1.99;;;1.83;;
8683;SDS011;4379;59.744;18.206;2023-11-21T03:04:35;1.53;;;1.53;;
8683;SDS011;4379;59.744;18.206;2023-11-21T03:07:07;1.90;;;1.80;;
8683;SDS011;4379;59.744;18.206;2023-11-21T03:09:36;2.30;;;2.10;;
8683;SDS011;4379;59.744;18.206;2023-11-21T03:12:04;2.17;;;2.07;;
8683;SDS011;4379;59.744;18.206;2023-11-21T03:14:33;2.23;;;2.10;;
8683;SDS011;4379;59.744;18.206;2023-11-21T03:17:22;2.20;;;2.10;;
8683;SDS011;4379;59.744;18.206;2023-11-21T03:19:52;2.20;;;2.10;;
8683;SDS011;4379;59.744;18.206;2023-11-21T03:22:25;2.43;;;2.33;;
8683;SDS011;4379;59.744;18.206;2023-11-21T03:25:04;2.17;;;2.07;;
8683;SDS011;4379;59.744;18.206;2023-11-21T03:27:32;2.40;;;2.30;;
8683;SDS011;4379;59.744;18.206;2023-11-21T03:29:59;2.23;;;2.13;;
8683;SDS011;4379;59.744;18.206;2023-11-21T03:32:27;2.10;;;2.00;;
8683;SDS011;4379;59.744;18.206;2023-11-21T03:34:57;2.30;;;2.20;;
8683;SDS011;4379;59.744;18.206;2023-11-21T03:37:26;2.20;;;2.10;;
8683;SDS011;4379;59.744;18.206;2023-11-21T03:39:56;2.07;;;1.97;;
8683;SDS011;4379;59.744;18.206;2023-11-21T03:42:24;2.20;;;2.10;;
8683;SDS011;4379;59.744;18.206;2023-11-21T03:44:54;2.40;;;2.30;;
8683;SDS011;4379;59.744;18.206;2023-11-21T03:47:21;2.17;;;2.07;;
8683;SDS011;4379;59.744;18.206;2023-11-21T03:49:49;2.47;;;2.37;;
8683;SDS011;4379;59.744;18.206;2023-11-21T03:52:17;2.47;;;2.37;;
8683;SDS011;4379;59.744;18.206;2023-11-21T03:54:46;2.30;;;2.20;;
8683;SDS011;4379;59.744;18.206;2023-11-21T03:57:14;2.00;;;1.90;;
8683;SDS011;4379;59.744;18.206;2023-11-21T03:59:41;1.90;;;1.90;;
8683;SDS011;4379;59.744;18.206;2023-11-21T04:02:09;2.10;;;2.00;;
8683;SDS011;4379;59.744;18.206;2023-11-21T04:04:40;2.30;;;2.20;;
8683;SDS011;4379;59.744;18.206;2023-11-21T04:07:13;2.37;;;2.27;;
8683;SDS011;4379;59.744;18.206;2023-11-21T04:09:46;2.63;;;2.43;;
8683;SDS011;4379;59.744;18.206;2023-11-21T04:12:17;2.40;;;2.30;;
8683;SDS011;4379;59.744;18.206;2023-11-21T04:14:48;2.50;;;2.40;;
8683;SDS011;4379;59.744;18.206;2023-11-21T04:17:21;2.87;;;2.67;;
8683;SDS011;4379;59.744;18.206;2023-11-21T04:19:49;2.50;;;2.40;;
8683;SDS011;4379;59.744;18.206;2023-11-21T04:22:18;2.70;;;2.60;;
8683;SDS011;4379;59.744;18.206;2023-11-21T04:24:56;2.40;;;2.30;;
8683;SDS011;4379;59.744;18.206;2023-11-21T04:27:24;2.90;;;2.80;;
8683;SDS011;4379;59.744;18.206;2023-11-21T04:29:52;3.10;;;2.90;;
8683;SDS011;4379;59.744;18.206;2023-11-21T04:32:22;2.53;;;2.43;;
8683;SDS011;4379;59.744;18.206;2023-11-21T04:34:50;2.87;;;2.77;;
8683;SDS011;4379;59.744;18.206;2023-11-21T04:37:20;2.83;;;2.73;;
8683;SDS011;4379;59.744;18.206;2023-11-21T04:39:49;3.10;;;3.00;;
8683;SDS011;4379;59.744;18.206;2023-11-21T04:42:23;2.70;;;2.60;;
8683;SDS011;4379;59.744;18.206;2023-11-21T04:44:55;2.90;;;2.80;;
8683;SDS011;4379;59.744;18.206;2023-11-21T04:47:23;2.90;;;2.80;;
8683;SDS011;4379;59.744;18.206;2023-11-21T04:49:59;2.80;;;2.60;;
8683;SDS011;4379;59.744;18.206;2023-11-21T04:52:27;2.80;;;2.70;;
8683;SDS011;4379;59.744;18.206;2023-11-21T04:54:54;2.93;;;2.77;;
8683;SDS011;4379;59.744;18.206;2023-11-21T04:57:21;3.23;;;3.10;;
8683;SDS011;4379;59.744;18.206;2023-11-21T04:59:48;3.13;;;2.93;;
8683;SDS011;4379;59.744;18.206;2023-11-21T05:02:16;2.47;;;2.37;;
8683;SDS011;4379;59.744;18.206;2023-11-21T05:05:00;2.50;;;2.40;;
8683;SDS011;4379;59.744;18.206;2023-11-21T05:07:30;2.83;;;2.73;;
8683;SDS011;4379;59.744;18.206;2023-11-21T05:09:59;2.60;;;2.50;;
8683;SDS011;4379;59.744;18.206;2023-11-21T05:12:26;2.57;;;2.47;;
8683;SDS011;4379;59.744;18.206;2023-11-21T05:14:53;2.30;;;2.20;;
8683;SDS011;4379;59.744;18.206;2023-11-21T05:17:37;2.47;;;2.37;;
8683;SDS011;4379;59.744;18.206;2023-11-21T05:20:13;2.67;;;2.57;;
8683;SDS011;4379;59.744;18.206;2023-11-21T05:22:51;3.10;;;3.00;;
8683;SDS011;4379;59.744;18.206;2023-11-21T05:25:28;2.90;;;2.80;;
8683;SDS011;4379;59.744;18.206;2023-11-21T05:28:07;2.80;;;2.70;;
8683;SDS011;4379;59.744;18.206;2023-11-21T05:30:36;2.90;;;2.80;;
8683;SDS011;4379;59.744;18.206;2023-11-21T05:33:08;2.70;;;2.60;;
8683;SDS011;4379;59.744;18.206;2023-11-21T05:35:37;3.07;;;2.97;;
8683;SDS011;4379;59.744;18.206;2023-11-21T05:38:10;2.93;;;2.83;;
8683;SDS011;4379;59.744;18.206;2023-11-21T05:40:39;2.70;;;2.60;;
8683;SDS011;4379;59.744;18.206;2023-11-21T05:43:16;2.90;;;2.80;;
8683;SDS011;4379;59.744;18.206;2023-11-21T05:45:44;3.00;;;2.73;;
8683;SDS011;4379;59.744;18.206;2023-11-21T05:48:11;2.97;;;2.77;;
8683;SDS011;4379;59.744;18.206;2023-11-21T05:50:41;3.20;;;3.00;;
8683;SDS011;4379;59.744;18.206;2023-11-21T05:55:49;3.10;;;2.90;;
8683;SDS011;4379;59.744;18.206;2023-11-21T05:58:18;3.00;;;2.80;;
8683;SDS011;4379;59.744;18.206;2023-11-21T06:00:47;3.20;;;3.00;;
8683;SDS011;4379;59.744;18.206;2023-11-21T06:03:16;3.10;;;2.87;;
8683;SDS011;4379;59.744;18.206;2023-11-21T06:05:44;2.40;;;2.30;;
8683;SDS011;4379;59.744;18.206;2023-11-21T06:08:22;4.30;;;3.27;;
8683;SDS011;4379;59.744;18.206;2023-11-21T06:10:49;3.13;;;3.03;;
8683;SDS011;4379;59.744;18.206;2023-11-21T06:13:17;3.30;;;3.10;;
8683;SDS011;4379;59.744;18.206;2023-11-21T06:15:47;3.17;;;3.07;;
8683;SDS011;4379;59.744;18.206;2023-11-21T06:18:14;3.60;;;3.40;;
8683;SDS011;4379;59.744;18.206;2023-11-21T06:20:41;3.63;;;3.33;;
8683;SDS011;4379;59.744;18.206;2023-11-21T06:23:09;3.30;;;3.20;;
8683;SDS011;4379;59.744;18.206;2023-11-21T06:25:39;3.60;;;3.40;;
8683;SDS011;4379;59.744;18.206;2023-11-21T06:28:07;4.00;;;3.80;;
8683;SDS011;4379;59.744;18.206;2023-11-21T06:30:34;3.83;;;3.53;;
8683;SDS011;4379;59.744;18.206;2023-11-21T06:33:04;3.73;;;3.53;;
8683;SDS011;4379;59.744;18.206;2023-11-21T06:35:33;4.13;;;3.93;;
8683;SDS011;4379;59.744;18.206;2023-11-21T06:38:01;3.80;;;3.60;;
8683;SDS011;4379;59.744;18.206;2023-11-21T06:40:29;3.77;;;3.53;;
8683;SDS011;4379;59.744;18.206;2023-11-21T06:43:06;3.30;;;3.13;;
8683;SDS011;4379;59.744;18.206;2023-11-21T06:45:36;3.40;;;3.20;;
8683;SDS011;4379;59.744;18.206;2023-11-21T06:48:03;3.37;;;3.17;;
8683;SDS011;4379;59.744;18.206;2023-11-21T06:50:30;3.90;;;3.60;;
8683;SDS011;4379;59.744;18.206;2023-11-21T06:53:01;3.57;;;3.37;;
8683;SDS011;4379;59.744;18.206;2023-11-21T06:55:30;4.10;;;3.80;;
8683;SDS011;4379;59.744;18.206;2023-11-21T06:57:58;3.80;;;3.60;;
8683;SDS011;4379;59.744;18.206;2023-11-21T07:00:26;3.63;;;3.43;;
8683;SDS011;4379;59.744;18.206;2023-11-21T07:02:54;3.50;;;3.30;;
8683;SDS011;4379;59.744;18.206;2023-11-21T07:05:22;3.87;;;3.67;;
8683;SDS011;4379;59.744;18.206;2023-11-21T07:07:49;3.20;;;3.10;;
8683;SDS011;4379;59.744;18.206;2023-11-21T07:10:17;3.40;;;3.10;;
8683;SDS011;4379;59.744;18.206;2023-11-21T07:12:47;3.90;;;3.70;;
8683;SDS011;4379;59.744;18.206;2023-11-21T07:15:16;3.90;;;3.70;;
8683;SDS011;4379;59.744;18.206;2023-11-21T07:17:47;4.03;;;3.77;;
8683;SDS011;4379;59.744;18.206;2023-11-21T07:20:21;3.97;;;3.77;;
8683;SDS011;4379;59.744;18.206;2023-11-21T07:22:50;3.77;;;3.57;;
8683;SDS011;4379;59.744;18.206;2023-11-21T07:25:21;3.50;;;3.30;;
8683;SDS011;4379;59.744;18.206;2023-11-21T07:28:01;3.67;;;3.40;;
8683;SDS011;4379;59.744;18.206;2023-11-21T07:31:13;3.37;;;3.17;;
8683;SDS011;4379;59.744;18.206;2023-11-21T07:33:49;3.27;;;3.10;;
8683;SDS011;4379;59.744;18.206;2023-11-21T07:36:39;3.20;;;3.00;;
8683;SDS011;4379;59.744;18.206;2023-11-21T07:39:12;2.93;;;2.77;;
8683;SDS011;4379;59.744;18.206;2023-11-21T07:41:40;2.90;;;2.80;;
8683;SDS011;4379;59.744;18.206;2023-11-21T07:44:25;2.87;;;2.77;;
8683;SDS011;4379;59.744;18.206;2023-11-21T07:47:04;3.00;;;2.77;;
8683;SDS011;4379;59.744;18.206;2023-11-21T07:49:46;3.10;;;2.90;;
8683;SDS011;4379;59.744;18.206;2023-11-21T07:52:23;2.83;;;2.73;;
8683;SDS011;4379;59.744;18.206;2023-11-21T07:54:59;3.20;;;3.00;;
8683;SDS011;4379;59.744;18.206;2023-11-21T07:57:28;3.03;;;2.90;;
8683;SDS011;4379;59.744;18.206;2023-11-21T07:59:55;3.17;;;3.00;;
8683;SDS011;4379;59.744;18.206;2023-11-21T08:02:23;3.20;;;3.00;;
8683;SDS011;4379;59.744;18.206;2023-11-21T08:04:55;3.20;;;3.00;;
8683;SDS011;4379;59.744;18.206;2023-11-21T08:07:26;3.27;;;3.00;;
8683;SDS011;4379;59.744;18.206;2023-11-21T08:12:52;3.30;;;3.10;;
8683;SDS011;4379;59.744;18.206;2023-11-21T08:15:23;3.73;;;3.43;;
8683;SDS011;4379;59.744;18.206;2023-11-21T08:17:55;3.77;;;3.57;;
8683;SDS011;4379;59.744;18.206;2023-11-21T08:20:26;4.03;;;3.83;;
8683;SDS011;4379;59.744;18.206;2023-11-21T08:23:11;3.63;;;3.43;;
8683;SDS011;4379;59.744;18.206;2023-11-21T08:25:40;3.20;;;3.10;;
8683;SDS011;4379;59.744;18.206;2023-11-21T08:28:08;3.40;;;3.20;;
8683;SDS011;4379;59.744;18.206;2023-11-21T08:30:36;3.40;;;3.20;;
8683;SDS011;4379;59.744;18.206;2023-11-21T08:33:03;3.40;;;3.20;;
8683;SDS011;4379;59.744;18.206;2023-11-21T08:35:31;3.07;;;2.87;;
8683;SDS011;4379;59.744;18.206;2023-11-21T08:37:59;2.80;;;2.70;;
8683;SDS011;4379;59.744;18.206;2023-11-21T08:40:26;2.87;;;2.77;;
8683;SDS011;4379;59.744;18.206;2023-11-21T08:42:53;3.20;;;3.00;;
8683;SDS011;4379;59.744;18.206;2023-11-21T08:45:24;3.27;;;3.07;;
8683;SDS011;4379;59.744;18.206;2023-11-21T08:48:08;3.20;;;3.00;;
8683;SDS011;4379;59.744;18.206;2023-11-21T08:50:41;2.50;;;2.40;;
8683;SDS011;4379;59.744;18.206;2023-11-21T08:55:58;2.80;;;2.70;;
8683;SDS011;4379;59.744;18.206;2023-11-21T08:58:25;3.00;;;2.90;;
8683;SDS011;4379;59.744;18.206;2023-11-21T09:00:52;2.60;;;2.50;;
8683;SDS011;4379;59.744;18.206;2023-11-21T09:03:23;2.60;;;2.50;;
8683;SDS011;4379;59.744;18.206;2023-11-21T09:05:50;2.57;;;2.47;;
8683;SDS011;4379;59.744;18.206;2023-11-21T09:08:17;2.37;;;2.27;;
8683;SDS011;4379;59.744;18.206;2023-11-21T09:10:44;2.40;;;2.20;;
8683;SDS011;4379;59.744;18.206;2023-11-21T09:13:13;2.00;;;2.00;;
8683;SDS011;4379;59.744;18.206;2023-11-21T09:15:43;2.50;;;2.40;;
8683;SDS011;4379;59.744;18.206;2023-11-21T09:18:13;2.40;;;2.30;;
8683;SDS011;4379;59.744;18.206;2023-11-21T09:20:42;2.40;;;2.30;;
8683;SDS011;4379;59.744;18.206;2023-11-21T09:23:12;2.30;;;2.20;;
8683;SDS011;4379;59.744;18.206;2023-11-21T09:25:42;2.27;;;2.17;;
8683;SDS011;4379;59.744;18.206;2023-11-21T09:28:13;2.43;;;2.33;;
8683;SDS011;4379;59.744;18.206;2023-11-21T09:30:40;2.27;;;2.17;;
8683;SDS011;4379;59.744;18.206;2023-11-21T09:33:07;2.60;;;2.50;;
8683;SDS011;4379;59.744;18.206;2023-11-21T09:35:38;2.33;;;2.20;;
8683;SDS011;4379;59.744;18.206;2023-11-21T09:38:07;2.10;;;2.00;;
8683;SDS011;4379;59.744;18.206;2023-11-21T09:40:48;2.40;;;2.30;;
8683;SDS011;4379;59.744;18.206;2023-11-21T09:46:54;2.03;;;1.93;;
8683;SDS011;4379;59.744;18.206;2023-11-21T09:49:37;2.10;;;2.00;;
8683;SDS011;4379;59.744;18.206;2023-11-21T09:55:18;2.33;;;2.23;;
8683;SDS011;4379;59.744;18.206;2023-11-21T09:57:53;2.00;;;1.90;;
8683;SDS011;4379;59.744;18.206;2023-11-21T10:00:24;2.10;;;2.00;;
8683;SDS011;4379;59.744;18.206;2023-11-21T10:02:58;2.20;;;2.10;;
8683;SDS011;4379;59.744;18.206;2023-11-21T10:05:27;2.20;;;2.10;;
8683;SDS011;4379;59.744;18.206;2023-11-21T10:07:55;2.07;;;1.97;;
8683;SDS011;4379;59.744;18.206;2023-11-21T10:10:25;1.63;;;1.63;;
8683;SDS011;4379;59.744;18.206;2023-11-21T10:12:56;1.83;;;1.73;;
8683;SDS011;4379;59.744;18.206;2023-11-21T10:15:25;1.53;;;1.53;;
8683;SDS011;4379;59.744;18.206;2023-11-21T10:17:52;1.70;;;1.53;;
8683;SDS011;4379;59.744;18.206;2023-11-21T10:20:22;1.30;;;1.30;;
8683;SDS011;4379;59.744;18.206;2023-11-21T10:22:51;1.30;;;1.30;;
8683;SDS011;4379;59.744;18.206;2023-11-21T10:25:21;1.70;;;1.60;;
8683;SDS011;4379;59.744;18.206;2023-11-21T10:27:57;1.33;;;1.33;;
8683;SDS011;4379;59.744;18.206;2023-11-21T10:30:31;2.10;;;1.40;;
8683;SDS011;4379;59.744;18.206;2023-11-21T10:33:04;1.23;;;1.23;;
8683;SDS011;4379;59.744;18.206;2023-11-21T10:35:47;1.10;;;1.10;;
8683;SDS011;4379;59.744;18.206;2023-11-21T10:38:23;1.20;;;1.10;;
8683;SDS011;4379;59.744;18.206;2023-11-21T10:40:53;1.37;;;1.27;;
8683;SDS011;4379;59.744;18.206;2023-11-21T10:43:24;0.90;;;0.90;;
8683;SDS011;4379;59.744;18.206;2023-11-21T10:45:53;1.17;;;1.10;;
8683;SDS011;4379;59.744;18.206;2023-11-21T10:48:29;2.10;;;1.20;;
8683;SDS011;4379;59.744;18.206;2023-11-21T10:50:59;1.20;;;1.20;;
8683;SDS011;4379;59.744;18.206;2023-11-21T10:53:32;1.07;;;1.07;;
8683;SDS011;4379;59.744;18.206;2023-11-21T10:56:19;1.03;;;1.03;;
8683;SDS011;4379;59.744;18.206;2023-11-21T10:58:49;1.10;;;1.10;;
8683;SDS011;4379;59.744;18.206;2023-11-21T11:01:18;0.90;;;0.90;;
8683;SDS011;4379;59.744;18.206;2023-11-21T11:03:50;1.00;;;1.00;;
8683;SDS011;4379;59.744;18.206;2023-11-21T11:06:22;0.90;;;0.90;;
8683;SDS011;4379;59.744;18.206;2023-11-21T11:08:53;0.90;;;0.90;;
8683;SDS011;4379;59.744;18.206;2023-11-21T11:11:21;0.90;;;0.90;;
8683;SDS011;4379;59.744;18.206;2023-11-21T11:13:48;0.90;;;0.90;;
8683;SDS011;4379;59.744;18.206;2023-11-21T11:16:16;0.90;;;0.90;;
8683;SDS011;4379;59.744;18.206;2023-11-21T11:18:44;0.80;;;0.80;;
8683;SDS011;4379;59.744;18.206;2023-11-21T11:21:26;2.10;;;1.57;;
8683;SDS011;4379;59.744;18.206;2023-11-21T11:26:42;0.80;;;0.80;;
8683;SDS011;4379;59.744;18.206;2023-11-21T11:29:25;0.73;;;0.73;;
8683;SDS011;4379;59.744;18.206;2023-11-21T11:36:05;0.90;;;0.90;;
8683;SDS011;4379;59.744;18.206;2023-11-21T11:38:05;1.20;;;1.10;;
8683;SDS011;4379;59.744;18.206;2023-11-21T11:40:41;1.00;;;1.00;;
8683;SDS011;4379;59.744;18.206;2023-11-21T11:43:11;0.83;;;0.83;;
8683;SDS011;4379;59.744;18.206;2023-11-21T11:45:38;1.10;;;1.10;;
8683;SDS011;4379;59.744;18.206;2023-11-21T11:48:10;0.83;;;0.83;;
8683;SDS011;4379;59.744;18.206;2023-11-21T11:51:00;1.30;;;1.30;;
8683;SDS011;4379;59.744;18.206;2023-11-21T11:53:35;1.10;;;1.10;;
8683;SDS011;4379;59.744;18.206;2023-11-21T11:56:31;1.40;;;1.30;;
8683;SDS011;4379;59.744;18.206;2023-11-21T11:59:10;1.03;;;1.03;;
8683;SDS011;4379;59.744;18.206;2023-11-21T12:01:54;1.33;;;1.33;;
8683;SDS011;4379;59.744;18.206;2023-11-21T12:04:42;1.00;;;1.00;;
8683;SDS011;4379;59.744;18.206;2023-11-21T12:07:25;0.80;;;0.80;;
8683;SDS011;4379;59.744;18.206;2023-11-21T12:13:30;1.00;;;1.00;;
8683;SDS011;4379;59.744;18.206;2023-11-21T12:16:27;0.90;;;0.90;;
8683;SDS011;4379;59.744;18.206;2023-11-21T12:19:12;0.90;;;0.90;;
8683;SDS011;4379;59.744;18.206;2023-11-21T12:21:50;0.73;;;0.73;;
8683;SDS011;4379;59.744;18.206;2023-11-21T12:24:45;0.90;;;0.90;;
8683;SDS011;4379;59.744;18.206;2023-11-21T12:27:38;0.80;;;0.70;;
8683;SDS011;4379;59.744;18.206;2023-11-21T12:30:11;1.03;;;0.80;;
8683;SDS011;4379;59.744;18.206;2023-11-21T12:32:41;0.80;;;0.80;;
8683;SDS011;4379;59.744;18.206;2023-11-21T12:35:14;0.73;;;0.73;;
8683;SDS011;4379;59.744;18.206;2023-11-21T12:38:11;0.80;;;0.80;;
8683;SDS011;4379;59.744;18.206;2023-11-21T12:40:39;1.00;;;1.00;;
8683;SDS011;4379;59.744;18.206;2023-11-21T12:43:15;1.70;;;1.00;;
8683;SDS011;4379;59.744;18.206;2023-11-21T12:45:44;0.70;;;0.70;;
8683;SDS011;4379;59.744;18.206;2023-11-21T12:48:39;0.60;;;0.60;;
8683;SDS011;4379;59.744;18.206;2023-11-21T12:51:18;1.97;;;1.87;;
8683;SDS011;4379;59.744;18.206;2023-11-21T12:53:48;2.00;;;1.90;;
8683;SDS011;4379;59.744;18.206;2023-11-21T12:56:16;1.90;;;1.80;;
8683;SDS011;4379;59.744;18.206;2023-11-21T12:58:44;1.40;;;1.40;;
8683;SDS011;4379;59.744;18.206;2023-11-21T13:01:17;1.40;;;1.40;;
8683;SDS011;4379;59.744;18.206;2023-11-21T13:03:48;1.63;;;1.60;;
8683;SDS011;4379;59.744;18.206;2023-11-21T13:06:18;2.00;;;1.80;;
8683;SDS011;4379;59.744;18.206;2023-11-21T13:08:46;1.93;;;1.83;;
8683;SDS011;4379;59.744;18.206;2023-11-21T13:11:13;1.90;;;1.80;;
8683;SDS011;4379;59.744;18.206;2023-11-21T13:13:42;1.33;;;1.33;;
8683;SDS011;4379;59.744;18.206;2023-11-21T13:16:12;1.23;;;1.23;;
8683;SDS011;4379;59.744;18.206;2023-11-21T13:18:39;1.27;;;1.27;;
8683;SDS011;4379;59.744;18.206;2023-11-21T13:21:08;1.10;;;1.10;;
8683;SDS011;4379;59.744;18.206;2023-11-21T13:23:41;0.97;;;0.97;;
8683;SDS011;4379;59.744;18.206;2023-11-21T13:26:09;1.00;;;1.00;;
8683;SDS011;4379;59.744;18.206;2023-11-21T13:28:36;1.10;;;1.10;;
8683;SDS011;4379;59.744;18.206;2023-11-21T13:31:05;0.90;;;0.90;;
8683;SDS011;4379;59.744;18.206;2023-11-21T13:33:38;0.90;;;0.90;;
8683;SDS011;4379;59.744;18.206;2023-11-21T13:36:06;1.47;;;1.00;;
8683;SDS011;4379;59.744;18.206;2023-11-21T13:38:37;1.00;;;1.00;;
8683;SDS011;4379;59.744;18.206;2023-11-21T13:41:09;1.00;;;1.00;;
8683;SDS011;4379;59.744;18.206;2023-11-21T13:43:37;0.90;;;0.90;;
8683;SDS011;4379;59.744;18.206;2023-11-21T13:46:04;0.93;;;0.93;;
8683;SDS011;4379;59.744;18.206;2023-11-21T13:48:41;1.00;;;1.00;;
8683;SDS011;4379;59.744;18.206;2023-11-21T13:51:10;0.87;;;0.87;;
8683;SDS011;4379;59.744;18.206;2023-11-21T13:53:44;1.03;;;1.00;;
8683;SDS011;4379;59.744;18.206;2023-11-21T13:56:14;1.20;;;1.20;;
8683;SDS011;4379;59.744;18.206;2023-11-21T13:58:46;1.03;;;1.03;;
8683;SDS011;4379;59.744;18.206;2023-11-21T14:01:18;1.10;;;1.10;;
8683;SDS011;4379;59.744;18.206;2023-11-21T14:03:59;1.37;;;0.90;;
8683;SDS011;4379;59.744;18.206;2023-11-21T14:06:43;3.10;;;1.10;;
8683;SDS011;4379;59.744;18.206;2023-11-21T14:09:16;1.20;;;1.10;;
8683;SDS011;4379;59.744;18.206;2023-11-21T14:11:52;1.10;;;1.10;;
8683;SDS011;4379;59.744;18.206;2023-11-21T14:14:21;1.00;;;1.00;;
8683;SDS011;4379;59.744;18.206;2023-11-21T14:16:48;1.03;;;0.70;;
8683;SDS011;4379;59.744;18.206;2023-11-21T14:19:16;1.10;;;1.10;;
8683;SDS011;4379;59.744;18.206;2023-11-21T14:21:44;1.13;;;1.13;;
8683;SDS011;4379;59.744;18.206;2023-11-21T14:24:12;1.20;;;1.20;;
8683;SDS011;4379;59.744;18.206;2023-11-21T14:26:40;1.10;;;1.10;;
8683;SDS011;4379;59.744;18.206;2023-11-21T14:29:09;0.97;;;0.97;;
8683;SDS011;4379;59.744;18.206;2023-11-21T14:31:39;1.40;;;1.30;;
8683;SDS011;4379;59.744;18.206;2023-11-21T14:34:10;1.63;;;1.10;;
8683;SDS011;4379;59.744;18.206;2023-11-21T14:36:38;1.40;;;1.30;;
8683;SDS011;4379;59.744;18.206;2023-11-21T14:39:06;1.10;;;0.93;;
8683;SDS011;4379;59.744;18.206;2023-11-21T14:41:37;1.07;;;1.07;;
8683;SDS011;4379;59.744;18.206;2023-11-21T14:44:05;1.47;;;1.47;;
8683;SDS011;4379;59.744;18.206;2023-11-21T14:46:38;1.30;;;1.30;;
8683;SDS011;4379;59.744;18.206;2023-11-21T14:49:07;1.30;;;1.20;;
8683;SDS011;4379;59.744;18.206;2023-11-21T14:51:46;1.30;;;1.30;;
8683;SDS011;4379;59.744;18.206;2023-11-21T14:54:30;1.20;;;1.20;;
8683;SDS011;4379;59.744;18.206;2023-11-21T14:57:12;1.30;;;1.30;;
8683;SDS011;4379;59.744;18.206;2023-11-21T14:59:48;1.27;;;1.27;;
8683;SDS011;4379;59.744;18.206;2023-11-21T15:02:19;1.10;;;1.10;;
8683;SDS011;4379;59.744;18.206;2023-11-21T15:05:09;1.07;;;1.07;;
8683;SDS011;4379;59.744;18.206;2023-11-21T15:07:47;1.00;;;1.00;;
8683;SDS011;4379;59.744;18.206;2023-11-21T15:10:16;0.90;;;0.90;;
8683;SDS011;4379;59.744;18.206;2023-11-21T15:12:48;0.80;;;0.80;;
8683;SDS011;4379;59.744;18.206;2023-11-21T15:15:15;0.90;;;0.90;;
8683;SDS011;4379;59.744;18.206;2023-11-21T15:17:44;0.90;;;0.90;;
8683;SDS011;4379;59.744;18.206;2023-11-21T15:20:12;0.77;;;0.77;;
8683;SDS011;4379;59.744;18.206;2023-11-21T15:22:45;2.00;;;0.90;;
8683;SDS011;4379;59.744;18.206;2023-11-21T15:25:13;1.10;;;0.93;;
8683;SDS011;4379;59.744;18.206;2023-11-21T15:27:40;0.70;;;0.70;;
8683;SDS011;4379;59.744;18.206;2023-11-21T15:30:08;1.90;;;0.80;;
8683;SDS011;4379;59.744;18.206;2023-11-21T15:32:35;0.50;;;0.50;;
8683;SDS011;4379;59.744;18.206;2023-11-21T15:35:02;0.87;;;0.67;;
8683;SDS011;4379;59.744;18.206;2023-11-21T15:37:30;0.70;;;0.70;;
8683;SDS011;4379;59.744;18.206;2023-11-21T15:39:57;0.60;;;0.60;;
8683;SDS011;4379;59.744;18.206;2023-11-21T15:42:24;0.77;;;0.77;;
8683;SDS011;4379;59.744;18.206;2023-11-21T15:44:51;0.70;;;0.70;;
8683;SDS011;4379;59.744;18.206;2023-11-21T15:47:18;0.70;;;0.70;;
8683;SDS011;4379;59.744;18.206;2023-11-21T15:49:45;0.60;;;0.60;;
8683;SDS011;4379;59.744;18.206;2023-11-21T15:52:16;0.60;;;0.60;;